Airfield :
LOGIN :

Register | Disclaimer

   EN    FR    IT 

 










Legend :    VFR   Marginal VFR   IFR   Intensive IFR   Very Intensive IFR
Visi :
Ceiling :
>= 8 km
>= 3000ft
5 to 8 km
1000 to 3000 ft
1500m to 5 km
500 to 1000 ft
800 to 1500m
200 to 500 ft
< 800m
< 200 ft
Symbols :   Thunderstorms  Fog  Heavy snow  Heavy precipitations  Wind > 20 kt
SIGMETs :     Misc.  Thunderstorms  Icing  Turbulence  Mountain Waves  Volcanic Ashes






- Airport Elevation : 512 ft
- IATA code : URO


LFOP - Rouen Vallée de Seine

CURRENT METAR :
  • 260800Z AUTO 17004KT CAVOK M01/M02 Q1021 NOSIG

EXPIRED METARs :
  • 260730Z AUTO 18004KT CAVOK M02/M02 Q1020 NOSIG
  • 260700Z AUTO 23003KT CAVOK M02/M03 Q1020 NOSIG
  • 260630Z AUTO 24004KT CAVOK M03/M03 Q1020 NOSIG
  • 260600Z AUTO 23005KT CAVOK M02/M04 Q1020 NOSIG
  • 260530Z AUTO 25005KT CAVOK M01/M03 Q1020

TAF TAF LFOP
Valid from the 26 at 06:00 until the 27 at 06:00 UTC


260500Z 2606/2706 27005KT CAVOK
BECMG 2614/2616 18010KT
TEMPO 2619/2624 3000 RASN
BECMG 2622/2624 4000 BR BKN007 OVC012
BECMG 2700/2703 0700 FG VV///
ATIS : +33 2 35 80 80 34
Met : +33 2 32 86 52 80



MET'MAP, your aeronautical weather chart ! - Copyright ORBIFLY December 2007 - Disclaimer

ORBIFLY MET'MAP TEAM :

Programming & Development : Alexandra Zaïnal
Concept & original design : Baudouin d'Aumeries
Assistance for programming : Marc-Olivier Méhu
Technical & hardware support : Manuel Goepfert

Contact : metmap@orbifly.com




SOURCES & CREDITS :

   NOAA